createdAt,value
2022-10-03T00:01:21.937Z,2.40
2022-10-03T00:03:57.655Z,2.30
2022-10-03T00:06:49.886Z,2.47
2022-10-03T00:09:47.304Z,2.60
2022-10-03T00:12:35.736Z,2.80
2022-10-03T00:15:09.610Z,2.40
2022-10-03T00:18:07.037Z,2.80
2022-10-03T00:21:16.372Z,2.60
2022-10-03T00:24:07.075Z,2.30
2022-10-03T00:26:54.636Z,2.27
2022-10-03T00:29:30.438Z,2.20
2022-10-03T00:32:12.259Z,2.33
2022-10-03T00:34:51.402Z,2.67
2022-10-03T00:37:29.748Z,2.67
2022-10-03T00:40:28.389Z,3.10
2022-10-03T00:43:14.122Z,2.40
2022-10-03T00:45:55.593Z,2.90
2022-10-03T00:48:44.289Z,2.83
2022-10-03T00:51:38.258Z,3.00
2022-10-03T00:54:21.245Z,3.00
2022-10-03T00:57:14.259Z,3.50
2022-10-03T01:00:18.661Z,2.83
2022-10-03T01:03:19.743Z,3.80
2022-10-03T01:06:24.164Z,2.90
2022-10-03T01:09:00.578Z,2.90
2022-10-03T01:11:55.313Z,2.90
2022-10-03T01:14:40.965Z,3.10
2022-10-03T01:17:38.957Z,2.60
2022-10-03T01:20:20.436Z,2.70
2022-10-03T01:23:38.096Z,2.73
2022-10-03T01:26:18.443Z,4.17
2022-10-03T01:29:17.008Z,2.60
2022-10-03T01:31:51.785Z,2.40
2022-10-03T01:34:34.524Z,2.03
2022-10-03T01:37:22.547Z,2.17
2022-10-03T01:40:04.805Z,2.47
2022-10-03T01:42:40.954Z,2.50
2022-10-03T01:45:31.238Z,2.30
2022-10-03T01:48:06.203Z,2.30
2022-10-03T01:50:58.501Z,2.17
2022-10-03T01:53:33.660Z,2.37
2022-10-03T01:56:50.106Z,2.60
2022-10-03T01:59:29.406Z,2.60
2022-10-03T02:02:11.615Z,2.37
2022-10-03T02:04:57.737Z,2.77
2022-10-03T02:07:36.456Z,4.17
2022-10-03T02:10:19.580Z,3.60
2022-10-03T02:13:08.983Z,3.10
2022-10-03T02:15:55.116Z,2.87
2022-10-03T02:18:47.817Z,2.60
2022-10-03T02:21:22.788Z,2.53
2022-10-03T02:24:16.062Z,2.50
2022-10-03T02:26:46.330Z,2.33
2022-10-03T02:29:22.171Z,2.57
2022-10-03T02:32:06.934Z,2.50
2022-10-03T02:35:11.818Z,2.73
2022-10-03T02:38:08.074Z,2.80
2022-10-03T02:41:07.632Z,2.50
2022-10-03T02:44:11.294Z,2.93
2022-10-03T02:47:22.105Z,2.83
2022-10-03T02:50:19.048Z,4.70
2022-10-03T02:53:16.097Z,2.80
2022-10-03T02:56:15.728Z,2.60
2022-10-03T02:59:29.684Z,2.70
2022-10-03T03:02:26.961Z,2.73
2022-10-03T03:05:31.786Z,2.60
2022-10-03T03:08:35.835Z,2.80
2022-10-03T03:11:41.413Z,2.80
2022-10-03T03:14:26.829Z,3.17
2022-10-03T03:17:31.161Z,3.23
2022-10-03T03:20:20.199Z,3.03
2022-10-03T03:23:15.289Z,3.30
2022-10-03T03:26:10.031Z,2.87
2022-10-03T03:28:58.679Z,2.80
2022-10-03T03:31:47.936Z,4.33
2022-10-03T03:34:42.273Z,2.80
2022-10-03T03:37:38.983Z,2.80
2022-10-03T03:40:38.333Z,2.90
2022-10-03T03:43:28.252Z,2.83
2022-10-03T03:49:23.943Z,2.70
2022-10-03T03:52:37.506Z,2.30
2022-10-03T03:55:48.589Z,2.60
2022-10-03T03:58:33.299Z,2.70
2022-10-03T04:01:13.279Z,3.13
2022-10-03T04:04:07.906Z,2.50
2022-10-03T04:07:03.681Z,2.63
2022-10-03T04:10:17.926Z,2.67
2022-10-03T04:13:03.324Z,2.60
2022-10-03T04:15:51.347Z,2.70
2022-10-03T04:18:39.935Z,3.00
2022-10-03T04:21:28.394Z,2.90
2022-10-03T04:24:31.943Z,3.63
2022-10-03T04:27:18.189Z,3.23
2022-10-03T04:30:09.052Z,2.80
2022-10-03T04:33:13.348Z,3.00
2022-10-03T04:36:07.633Z,2.97
2022-10-03T04:39:01.906Z,3.10
2022-10-03T04:42:08.156Z,3.00
2022-10-03T04:45:09.745Z,3.07
2022-10-03T04:47:53.935Z,3.50
2022-10-03T05:28:26.940Z,3.60
2022-10-03T05:31:20.367Z,3.20
2022-10-03T05:40:24.083Z,3.00
2022-10-03T06:32:09.512Z,2.40
2022-10-03T06:35:10.518Z,2.33
2022-10-03T06:37:52.765Z,2.47
2022-10-03T06:40:28.970Z,2.80
2022-10-03T06:43:34.912Z,2.33
2022-10-03T06:46:23.217Z,1.90
2022-10-03T06:49:09.642Z,1.40
2022-10-03T06:52:02.767Z,1.37
2022-10-03T06:55:07.892Z,1.40
2022-10-03T06:58:21.201Z,1.40
2022-10-03T07:00:56.093Z,1.90
2022-10-03T07:04:00.736Z,1.80
2022-10-03T07:06:51.324Z,2.10
2022-10-03T07:10:02.575Z,1.90
2022-10-03T07:12:52.479Z,1.70
2022-10-03T07:16:25.411Z,2.00
2022-10-03T07:19:04.770Z,1.60
2022-10-03T07:21:57.183Z,1.80
2022-10-03T07:24:52.506Z,1.73
2022-10-03T07:27:50.882Z,1.40
2022-10-03T07:30:22.325Z,1.53
2022-10-03T07:33:19.549Z,2.10
2022-10-03T07:36:49.668Z,1.67
2022-10-03T07:39:50.453Z,2.03
2022-10-03T07:42:51.093Z,2.20
2022-10-03T07:45:36.312Z,2.03
2022-10-03T07:48:40.093Z,2.80
2022-10-03T07:51:15.165Z,3.50
2022-10-03T07:54:20.211Z,3.97
2022-10-03T07:57:16.089Z,2.60
2022-10-03T08:00:27.281Z,2.53
2022-10-03T08:03:31.377Z,2.77
2022-10-03T08:06:26.647Z,2.50
2022-10-03T08:09:35.375Z,2.50
2022-10-03T08:12:34.741Z,4.07
2022-10-03T08:15:21.560Z,2.80
2022-10-03T08:18:02.206Z,3.07
2022-10-03T08:20:56.146Z,5.77
2022-10-03T08:23:57.121Z,3.67
2022-10-03T08:26:59.571Z,4.87
2022-10-03T08:29:41.665Z,4.50
2022-10-03T08:32:33.491Z,5.10
2022-10-03T08:35:23.157Z,8.40
2022-10-03T08:38:36.698Z,6.20
2022-10-03T08:41:41.997Z,7.93
2022-10-03T08:44:40.782Z,8.20
2022-10-03T08:47:27.158Z,7.30
2022-10-03T08:50:33.123Z,7.40
2022-10-03T08:53:20.539Z,6.90
2022-10-03T08:56:17.363Z,6.97
2022-10-03T08:58:59.572Z,7.43
2022-10-03T09:01:38.110Z,8.17
2022-10-03T09:04:20.621Z,7.97
2022-10-03T09:07:25.264Z,8.30
2022-10-03T09:10:27.673Z,8.57
2022-10-03T09:13:22.028Z,9.13
2022-10-03T09:15:58.522Z,8.70
2022-10-03T09:18:47.980Z,9.47
2022-10-03T09:21:37.437Z,10.93
2022-10-03T09:24:42.332Z,11.47
2022-10-03T09:27:46.538Z,11.13
2022-10-03T09:30:49.734Z,10.23
2022-10-03T09:33:47.663Z,9.47
2022-10-03T09:36:41.566Z,10.33
2022-10-03T09:39:24.438Z,9.20
2022-10-03T09:42:43.682Z,8.90
2022-10-03T09:45:41.440Z,8.33
2022-10-03T09:48:33.358Z,8.07
2022-10-03T09:51:09.337Z,8.07
2022-10-03T09:53:54.894Z,8.10
2022-10-03T09:56:25.527Z,8.00
2022-10-03T09:59:30.028Z,8.00
2022-10-03T10:02:03.424Z,9.10
2022-10-03T10:04:59.241Z,8.07
2022-10-03T10:07:45.531Z,7.30
2022-10-03T10:10:36.977Z,7.90
2022-10-03T10:13:11.366Z,8.07
2022-10-03T10:16:02.999Z,8.83
2022-10-03T10:18:40.507Z,7.70
2022-10-03T10:21:25.648Z,9.23
2022-10-03T10:24:23.296Z,7.47
2022-10-03T10:27:08.668Z,7.87
2022-10-03T10:30:08.793Z,8.03
2022-10-03T10:32:47.631Z,7.23
2022-10-03T10:35:15.343Z,7.47
2022-10-03T10:38:26.152Z,7.80
2022-10-03T10:41:18.315Z,6.73
2022-10-03T10:44:16.187Z,7.07
2022-10-03T10:47:18.154Z,7.57
2022-10-03T10:50:23.690Z,7.37
2022-10-03T10:53:28.291Z,7.40
2022-10-03T10:56:15.405Z,7.60
2022-10-03T10:59:05.765Z,7.37
2022-10-03T11:02:10.325Z,7.23
2022-10-03T11:04:40.455Z,7.53
2022-10-03T11:07:28.946Z,7.40
2022-10-03T11:10:16.573Z,6.87
2022-10-03T11:13:02.786Z,6.73
2022-10-03T11:16:05.853Z,6.43
2022-10-03T11:19:09.704Z,8.00
2022-10-03T11:21:55.018Z,6.53
2022-10-03T11:24:49.488Z,6.60
2022-10-03T11:27:53.728Z,5.80
2022-10-03T11:31:00.504Z,5.10
2022-10-03T11:33:53.362Z,6.30
2022-10-03T11:36:57.373Z,5.50
2022-10-03T11:39:47.116Z,5.30
2022-10-03T11:42:41.233Z,5.77
2022-10-03T11:45:54.430Z,6.30
2022-10-03T11:48:42.046Z,7.10
2022-10-03T11:51:38.270Z,7.27
2022-10-03T11:54:30.933Z,6.00
2022-10-03T11:57:13.684Z,6.77
2022-10-03T11:59:55.473Z,6.30
2022-10-03T12:02:49.214Z,7.80
2022-10-03T12:05:37.857Z,6.40
2022-10-03T12:08:36.810Z,7.57
2022-10-03T12:11:28.189Z,6.57
2022-10-03T12:14:23.809Z,6.37
2022-10-03T12:17:15.907Z,6.87
2022-10-03T12:20:02.279Z,6.80
2022-10-03T12:22:53.395Z,6.60
2022-10-03T12:25:24.058Z,6.17
2022-10-03T12:28:21.084Z,6.50
2022-10-03T12:31:01.242Z,6.10
2022-10-03T12:33:48.010Z,6.10
2022-10-03T12:36:27.580Z,6.07
2022-10-03T12:39:14.214Z,5.57
2022-10-03T12:42:18.474Z,6.17
2022-10-03T12:44:46.679Z,5.90
2022-10-03T12:47:54.946Z,5.30
2022-10-03T12:50:55.028Z,5.60
2022-10-03T12:53:25.504Z,5.70
2022-10-03T12:56:14.395Z,5.20
2022-10-03T12:59:19.311Z,5.30
2022-10-03T13:02:23.185Z,5.20
2022-10-03T13:05:24.149Z,5.10
2022-10-03T13:08:02.963Z,5.70
2022-10-03T13:10:53.775Z,5.50
2022-10-03T13:13:23.789Z,5.00
2022-10-03T13:16:06.005Z,5.30
2022-10-03T13:18:51.754Z,5.07
2022-10-03T13:21:46.793Z,5.20
2022-10-03T13:24:32.262Z,4.57
2022-10-03T13:27:25.985Z,4.40
2022-10-03T13:30:17.734Z,4.70
2022-10-03T13:32:50.331Z,4.30
2022-10-03T13:35:53.476Z,4.37
2022-10-03T13:38:46.925Z,4.00
2022-10-03T13:41:20.006Z,3.70
2022-10-03T13:43:58.620Z,3.67
2022-10-03T13:46:40.941Z,3.90
2022-10-03T13:49:34.320Z,3.50
2022-10-03T13:52:23.616Z,3.77
2022-10-03T13:55:17.739Z,3.73
2022-10-03T13:57:48.932Z,3.80
2022-10-03T14:00:22.264Z,3.70
2022-10-03T14:03:17.929Z,3.90
2022-10-03T14:05:56.698Z,4.30
2022-10-03T14:08:42.785Z,4.60
2022-10-03T14:11:47.286Z,3.70
2022-10-03T14:14:36.130Z,3.50
2022-10-03T14:17:15.123Z,3.63
2022-10-03T14:19:54.383Z,3.43
2022-10-03T14:22:40.166Z,3.23
2022-10-03T14:25:19.794Z,2.90
2022-10-03T14:27:54.577Z,3.63
2022-10-03T14:31:04.424Z,3.10
2022-10-03T14:33:46.827Z,3.27
2022-10-03T14:36:41.177Z,3.27
2022-10-03T14:39:28.470Z,3.30
2022-10-03T14:42:26.615Z,3.40
2022-10-03T14:44:57.925Z,3.40
2022-10-03T14:47:31.865Z,3.00
2022-10-03T14:50:00.227Z,3.10
2022-10-03T14:53:12.311Z,3.40
2022-10-03T14:55:45.880Z,3.27
2022-10-03T14:58:17.234Z,3.27
2022-10-03T15:00:52.396Z,3.07
2022-10-03T15:03:29.394Z,3.63
2022-10-03T15:05:56.776Z,2.97
2022-10-03T15:08:39.395Z,3.23
2022-10-03T15:11:08.463Z,3.37
2022-10-03T15:13:53.833Z,3.10
2022-10-03T15:16:23.310Z,3.60
2022-10-03T15:19:00.304Z,3.10
2022-10-03T15:21:30.142Z,2.63
2022-10-03T15:24:07.653Z,3.33
2022-10-03T15:26:38.363Z,2.90
2022-10-03T15:29:08.242Z,2.57
2022-10-03T15:31:46.169Z,2.80
2022-10-03T15:34:39.648Z,2.40
2022-10-03T15:37:17.320Z,2.87
2022-10-03T15:39:48.161Z,2.50
2022-10-03T15:42:23.051Z,2.60
2022-10-03T15:45:03.778Z,2.20
2022-10-03T15:47:36.816Z,2.27
2022-10-03T15:50:27.597Z,2.07
2022-10-03T15:53:12.441Z,2.17
2022-10-03T15:55:53.591Z,1.77
2022-10-03T15:58:34.917Z,2.53
2022-10-03T16:01:25.748Z,2.20
2022-10-03T16:03:59.747Z,2.10
2022-10-03T16:06:55.229Z,2.40
2022-10-03T16:09:44.498Z,2.03
2022-10-03T16:12:53.166Z,2.00
2022-10-03T16:15:44.406Z,1.70
2022-10-03T16:18:44.039Z,1.83
2022-10-03T16:21:20.921Z,1.83
2022-10-03T16:23:53.285Z,1.80
2022-10-03T16:26:30.161Z,1.83
2022-10-03T16:29:19.940Z,1.67
2022-10-03T16:32:06.420Z,1.40
2022-10-03T16:34:36.787Z,1.20
2022-10-03T16:37:23.941Z,1.20
2022-10-03T16:40:03.270Z,1.17
2022-10-03T16:42:45.421Z,1.17
2022-10-03T16:45:38.288Z,1.17
2022-10-03T16:48:32.807Z,1.10
2022-10-03T16:51:02.040Z,1.00
2022-10-03T16:53:31.402Z,1.10
2022-10-03T16:56:08.181Z,1.30
2022-10-03T16:58:43.802Z,1.03
2022-10-03T17:01:42.762Z,0.93
2022-10-03T17:04:32.791Z,0.90
2022-10-03T17:07:21.029Z,0.90
2022-10-03T17:09:54.043Z,0.80
2022-10-03T17:12:37.061Z,0.80
2022-10-03T17:15:34.051Z,0.90
2022-10-03T17:18:15.769Z,0.90
2022-10-03T17:20:50.956Z,0.90
2022-10-03T17:23:29.456Z,1.33
2022-10-03T17:26:36.140Z,0.80
2022-10-03T17:29:10.729Z,0.80
2022-10-03T17:32:02.657Z,0.80
2022-10-03T17:34:38.034Z,0.80
2022-10-03T17:37:25.700Z,0.73
2022-10-03T17:39:56.876Z,0.70
2022-10-03T17:42:46.436Z,0.70
2022-10-03T17:45:26.737Z,0.60
2022-10-03T17:48:14.299Z,0.70
2022-10-03T17:50:56.171Z,0.70
2022-10-03T17:53:36.719Z,0.70
2022-10-03T17:56:12.053Z,0.70
2022-10-03T17:58:45.324Z,0.70
2022-10-03T18:01:17.628Z,0.63
2022-10-03T18:03:56.589Z,0.70
2022-10-03T18:06:29.877Z,0.60
2022-10-03T18:08:59.890Z,0.70
2022-10-03T18:11:33.589Z,0.70
2022-10-03T18:14:15.941Z,0.70
2022-10-03T18:16:52.996Z,0.70
2022-10-03T18:19:51.639Z,0.70
2022-10-03T18:22:30.669Z,0.60
2022-10-03T18:25:39.264Z,0.70
2022-10-03T18:28:20.914Z,0.80
2022-10-03T18:31:06.081Z,0.80
2022-10-03T18:33:53.151Z,0.70
2022-10-03T18:36:29.312Z,0.73
2022-10-03T18:39:36.600Z,0.70
2022-10-03T18:42:11.749Z,0.80
2022-10-03T18:44:53.800Z,0.80
2022-10-03T18:47:32.939Z,0.80
2022-10-03T18:50:27.146Z,0.70
2022-10-03T18:53:17.563Z,0.80
2022-10-03T18:55:55.583Z,0.70
2022-10-03T18:58:27.894Z,0.70
2022-10-03T19:01:06.572Z,0.70
2022-10-03T19:03:40.542Z,0.70
2022-10-03T19:06:24.739Z,0.80
2022-10-03T19:09:33.128Z,0.63
2022-10-03T19:12:21.365Z,0.70
2022-10-03T19:15:11.344Z,0.70
2022-10-03T19:17:50.026Z,0.70
2022-10-03T19:20:23.050Z,0.70
2022-10-03T19:23:00.043Z,0.80
2022-10-03T19:25:30.469Z,0.80
2022-10-03T19:28:08.675Z,0.80
2022-10-03T19:30:39.682Z,0.80
2022-10-03T19:33:24.290Z,0.80
2022-10-03T19:35:58.212Z,1.10
2022-10-03T19:38:35.773Z,0.60
2022-10-03T19:41:25.457Z,0.60
2022-10-03T19:43:54.469Z,0.70
2022-10-03T19:46:30.923Z,0.60
2022-10-03T19:49:33.458Z,0.60
2022-10-03T19:58:34.322Z,0.60
2022-10-03T20:10:40.107Z,0.67
2022-10-03T20:42:40.483Z,0.70
2022-10-03T21:27:53.931Z,0.80
